sensor_id;sensor_type;location;lat;lon;timestamp;P1;durP1;ratioP1;P2;durP2;ratioP2
9689;SDS011;4884;42.614;23.340;2023-02-23T00:00:40;7.97;;;6.27;;
9689;SDS011;4884;42.614;23.340;2023-02-23T00:03:08;9.37;;;6.20;;
9689;SDS011;4884;42.614;23.340;2023-02-23T00:05:35;10.73;;;6.87;;
9689;SDS011;4884;42.614;23.340;2023-02-23T00:08:01;12.47;;;8.57;;
9689;SDS011;4884;42.614;23.340;2023-02-23T00:10:26;14.30;;;9.50;;
9689;SDS011;4884;42.614;23.340;2023-02-23T00:12:58;20.03;;;11.93;;
9689;SDS011;4884;42.614;23.340;2023-02-23T00:15:24;20.00;;;11.30;;
9689;SDS011;4884;42.614;23.340;2023-02-23T00:17:54;18.50;;;10.33;;
9689;SDS011;4884;42.614;23.340;2023-02-23T00:20:20;12.50;;;7.43;;
9689;SDS011;4884;42.614;23.340;2023-02-23T00:22:50;11.60;;;8.50;;
9689;SDS011;4884;42.614;23.340;2023-02-23T00:25:20;12.67;;;7.97;;
9689;SDS011;4884;42.614;23.340;2023-02-23T00:27:46;12.23;;;7.87;;
9689;SDS011;4884;42.614;23.340;2023-02-23T00:30:12;12.53;;;8.33;;
9689;SDS011;4884;42.614;23.340;2023-02-23T00:32:38;15.03;;;8.43;;
9689;SDS011;4884;42.614;23.340;2023-02-23T00:35:03;16.30;;;9.27;;
9689;SDS011;4884;42.614;23.340;2023-02-23T00:37:33;16.07;;;10.17;;
9689;SDS011;4884;42.614;23.340;2023-02-23T00:39:59;20.83;;;10.57;;
9689;SDS011;4884;42.614;23.340;2023-02-23T00:42:24;16.43;;;8.93;;
9689;SDS011;4884;42.614;23.340;2023-02-23T00:44:53;15.27;;;9.30;;
9689;SDS011;4884;42.614;23.340;2023-02-23T00:47:19;17.03;;;9.17;;
9689;SDS011;4884;42.614;23.340;2023-02-23T00:49:44;10.27;;;7.97;;
9689;SDS011;4884;42.614;23.340;2023-02-23T00:52:10;12.93;;;8.73;;
9689;SDS011;4884;42.614;23.340;2023-02-23T00:54:38;15.17;;;9.30;;
9689;SDS011;4884;42.614;23.340;2023-02-23T00:57:03;11.83;;;7.77;;
9689;SDS011;4884;42.614;23.340;2023-02-23T00:59:28;9.07;;;7.00;;
9689;SDS011;4884;42.614;23.340;2023-02-23T01:01:54;14.50;;;7.83;;
9689;SDS011;4884;42.614;23.340;2023-02-23T01:04:19;6.83;;;5.60;;
9689;SDS011;4884;42.614;23.340;2023-02-23T01:06:44;6.43;;;5.43;;
9689;SDS011;4884;42.614;23.340;2023-02-23T01:09:11;8.00;;;5.43;;
9689;SDS011;4884;42.614;23.340;2023-02-23T01:11:40;6.70;;;5.23;;
9689;SDS011;4884;42.614;23.340;2023-02-23T01:14:06;7.40;;;6.00;;
9689;SDS011;4884;42.614;23.340;2023-02-23T01:16:32;6.77;;;5.30;;
9689;SDS011;4884;42.614;23.340;2023-02-23T01:18:59;6.40;;;5.63;;
9689;SDS011;4884;42.614;23.340;2023-02-23T01:21:27;8.23;;;5.40;;
9689;SDS011;4884;42.614;23.340;2023-02-23T01:23:55;6.97;;;5.37;;
9689;SDS011;4884;42.614;23.340;2023-02-23T01:26:22;7.93;;;4.87;;
9689;SDS011;4884;42.614;23.340;2023-02-23T01:28:56;7.87;;;5.73;;
9689;SDS011;4884;42.614;23.340;2023-02-23T01:31:23;6.60;;;5.37;;
9689;SDS011;4884;42.614;23.340;2023-02-23T01:33:52;9.60;;;7.80;;
9689;SDS011;4884;42.614;23.340;2023-02-23T01:36:18;10.73;;;7.17;;
9689;SDS011;4884;42.614;23.340;2023-02-23T01:38:43;10.33;;;7.73;;
9689;SDS011;4884;42.614;23.340;2023-02-23T01:41:09;11.10;;;7.77;;
9689;SDS011;4884;42.614;23.340;2023-02-23T01:43:34;16.33;;;10.27;;
9689;SDS011;4884;42.614;23.340;2023-02-23T01:46:01;25.30;;;16.07;;
9689;SDS011;4884;42.614;23.340;2023-02-23T01:48:27;50.97;;;25.70;;
9689;SDS011;4884;42.614;23.340;2023-02-23T01:51:02;67.53;;;33.57;;
9689;SDS011;4884;42.614;23.340;2023-02-23T01:53:32;68.67;;;34.17;;
9689;SDS011;4884;42.614;23.340;2023-02-23T01:56:04;43.07;;;22.93;;
9689;SDS011;4884;42.614;23.340;2023-02-23T01:58:35;39.33;;;21.40;;
9689;SDS011;4884;42.614;23.340;2023-02-23T02:01:03;31.13;;;17.03;;
9689;SDS011;4884;42.614;23.340;2023-02-23T02:03:33;26.80;;;15.40;;
9689;SDS011;4884;42.614;23.340;2023-02-23T02:06:02;22.47;;;12.90;;
9689;SDS011;4884;42.614;23.340;2023-02-23T02:08:29;18.37;;;12.20;;
9689;SDS011;4884;42.614;23.340;2023-02-23T02:10:55;18.63;;;12.23;;
9689;SDS011;4884;42.614;23.340;2023-02-23T02:13:22;18.23;;;11.17;;
9689;SDS011;4884;42.614;23.340;2023-02-23T02:18:34;14.33;;;9.30;;
9689;SDS011;4884;42.614;23.340;2023-02-23T02:27:09;9.47;;;6.87;;
9689;SDS011;4884;42.614;23.340;2023-02-23T02:33:04;22.63;;;11.00;;
9689;SDS011;4884;42.614;23.340;2023-02-23T02:41:34;23.40;;;12.07;;
9689;SDS011;4884;42.614;23.340;2023-02-23T02:49:06;22.13;;;13.80;;
9689;SDS011;4884;42.614;23.340;2023-02-23T02:51:51;33.63;;;18.20;;
9689;SDS011;4884;42.614;23.340;2023-02-23T02:54:32;35.47;;;18.70;;
9689;SDS011;4884;42.614;23.340;2023-02-23T02:57:01;23.37;;;14.13;;
9689;SDS011;4884;42.614;23.340;2023-02-23T02:59:28;24.40;;;13.83;;
9689;SDS011;4884;42.614;23.340;2023-02-23T03:02:13;23.77;;;14.07;;
9689;SDS011;4884;42.614;23.340;2023-02-23T03:05:00;17.60;;;11.83;;
9689;SDS011;4884;42.614;23.340;2023-02-23T03:07:49;16.63;;;10.53;;
9689;SDS011;4884;42.614;23.340;2023-02-23T03:10:46;16.10;;;10.00;;
9689;SDS011;4884;42.614;23.340;2023-02-23T03:19:54;7.33;;;5.87;;
9689;SDS011;4884;42.614;23.340;2023-02-23T03:22:46;11.23;;;7.33;;
9689;SDS011;4884;42.614;23.340;2023-02-23T03:28:33;10.50;;;7.67;;
9689;SDS011;4884;42.614;23.340;2023-02-23T03:34:42;12.53;;;8.77;;
9689;SDS011;4884;42.614;23.340;2023-02-23T03:40:54;12.03;;;9.57;;
9689;SDS011;4884;42.614;23.340;2023-02-23T03:43:40;14.30;;;9.87;;
9689;SDS011;4884;42.614;23.340;2023-02-23T03:46:29;13.97;;;9.77;;
9689;SDS011;4884;42.614;23.340;2023-02-23T03:49:14;15.47;;;11.37;;
9689;SDS011;4884;42.614;23.340;2023-02-23T03:52:00;17.73;;;12.30;;
9689;SDS011;4884;42.614;23.340;2023-02-23T03:54:50;19.27;;;14.27;;
9689;SDS011;4884;42.614;23.340;2023-02-23T03:57:37;30.83;;;22.23;;
9689;SDS011;4884;42.614;23.340;2023-02-23T04:00:24;22.47;;;17.10;;
9689;SDS011;4884;42.614;23.340;2023-02-23T04:03:11;91.73;;;56.63;;
9689;SDS011;4884;42.614;23.340;2023-02-23T04:05:57;218.90;;;125.57;;
9689;SDS011;4884;42.614;23.340;2023-02-23T04:08:41;135.50;;;85.07;;
9689;SDS011;4884;42.614;23.340;2023-02-23T04:14:27;98.33;;;59.17;;
9689;SDS011;4884;42.614;23.340;2023-02-23T04:16:55;76.23;;;49.47;;
9689;SDS011;4884;42.614;23.340;2023-02-23T04:19:21;53.27;;;33.77;;
9689;SDS011;4884;42.614;23.340;2023-02-23T04:21:46;14.30;;;10.47;;
9689;SDS011;4884;42.614;23.340;2023-02-23T04:24:12;14.23;;;9.93;;
9689;SDS011;4884;42.614;23.340;2023-02-23T04:26:37;13.23;;;9.70;;
9689;SDS011;4884;42.614;23.340;2023-02-23T04:29:03;13.87;;;8.77;;
9689;SDS011;4884;42.614;23.340;2023-02-23T04:31:28;13.33;;;10.13;;
9689;SDS011;4884;42.614;23.340;2023-02-23T04:33:53;54.03;;;41.67;;
9689;SDS011;4884;42.614;23.340;2023-02-23T04:36:19;16.07;;;12.23;;
9689;SDS011;4884;42.614;23.340;2023-02-23T04:38:44;13.87;;;10.97;;
9689;SDS011;4884;42.614;23.340;2023-02-23T04:41:09;13.93;;;10.70;;
9689;SDS011;4884;42.614;23.340;2023-02-23T04:43:34;12.23;;;10.90;;
9689;SDS011;4884;42.614;23.340;2023-02-23T04:46:00;13.17;;;10.57;;
9689;SDS011;4884;42.614;23.340;2023-02-23T04:48:26;21.77;;;16.03;;
9689;SDS011;4884;42.614;23.340;2023-02-23T04:50:52;84.53;;;57.87;;
9689;SDS011;4884;42.614;23.340;2023-02-23T04:53:17;125.70;;;76.37;;
9689;SDS011;4884;42.614;23.340;2023-02-23T04:55:43;69.13;;;49.73;;
9689;SDS011;4884;42.614;23.340;2023-02-23T04:58:08;76.43;;;59.17;;
9689;SDS011;4884;42.614;23.340;2023-02-23T05:00:37;43.40;;;35.27;;
9689;SDS011;4884;42.614;23.340;2023-02-23T05:03:03;18.67;;;12.07;;
9689;SDS011;4884;42.614;23.340;2023-02-23T05:05:29;15.93;;;12.93;;
9689;SDS011;4884;42.614;23.340;2023-02-23T05:07:55;14.83;;;13.17;;
9689;SDS011;4884;42.614;23.340;2023-02-23T05:10:20;10.10;;;7.80;;
9689;SDS011;4884;42.614;23.340;2023-02-23T05:12:46;11.07;;;8.30;;
9689;SDS011;4884;42.614;23.340;2023-02-23T05:15:11;9.80;;;8.13;;
9689;SDS011;4884;42.614;23.340;2023-02-23T05:17:37;10.40;;;7.53;;
9689;SDS011;4884;42.614;23.340;2023-02-23T05:20:05;17.37;;;12.93;;
9689;SDS011;4884;42.614;23.340;2023-02-23T05:22:30;25.17;;;21.87;;
9689;SDS011;4884;42.614;23.340;2023-02-23T05:24:56;30.03;;;26.53;;
9689;SDS011;4884;42.614;23.340;2023-02-23T05:27:21;22.00;;;19.70;;
9689;SDS011;4884;42.614;23.340;2023-02-23T05:29:47;18.17;;;14.60;;
9689;SDS011;4884;42.614;23.340;2023-02-23T05:32:12;11.53;;;9.70;;
9689;SDS011;4884;42.614;23.340;2023-02-23T05:34:37;20.50;;;15.87;;
9689;SDS011;4884;42.614;23.340;2023-02-23T05:37:03;19.23;;;17.17;;
9689;SDS011;4884;42.614;23.340;2023-02-23T05:39:28;22.10;;;17.60;;
9689;SDS011;4884;42.614;23.340;2023-02-23T05:41:54;28.17;;;20.03;;
9689;SDS011;4884;42.614;23.340;2023-02-23T05:44:19;28.40;;;20.13;;
9689;SDS011;4884;42.614;23.340;2023-02-23T05:46:45;25.23;;;18.20;;
9689;SDS011;4884;42.614;23.340;2023-02-23T05:49:11;25.57;;;17.53;;
9689;SDS011;4884;42.614;23.340;2023-02-23T05:51:37;23.30;;;16.37;;
9689;SDS011;4884;42.614;23.340;2023-02-23T05:54:03;28.43;;;19.83;;
9689;SDS011;4884;42.614;23.340;2023-02-23T05:56:29;32.53;;;20.97;;
9689;SDS011;4884;42.614;23.340;2023-02-23T05:58:55;29.13;;;19.30;;
9689;SDS011;4884;42.614;23.340;2023-02-23T06:01:24;21.03;;;16.83;;
9689;SDS011;4884;42.614;23.340;2023-02-23T06:03:50;18.30;;;15.47;;
9689;SDS011;4884;42.614;23.340;2023-02-23T06:06:16;17.70;;;13.67;;
9689;SDS011;4884;42.614;23.340;2023-02-23T06:08:42;22.67;;;17.00;;
9689;SDS011;4884;42.614;23.340;2023-02-23T06:11:08;21.77;;;16.17;;
9689;SDS011;4884;42.614;23.340;2023-02-23T06:13:33;20.43;;;15.67;;
9689;SDS011;4884;42.614;23.340;2023-02-23T06:15:59;20.97;;;16.40;;
9689;SDS011;4884;42.614;23.340;2023-02-23T06:18:25;27.10;;;17.93;;
9689;SDS011;4884;42.614;23.340;2023-02-23T06:20:51;25.27;;;18.90;;
9689;SDS011;4884;42.614;23.340;2023-02-23T06:23:16;23.93;;;16.97;;
9689;SDS011;4884;42.614;23.340;2023-02-23T06:25:42;20.13;;;15.10;;
9689;SDS011;4884;42.614;23.340;2023-02-23T06:28:08;21.57;;;17.23;;
9689;SDS011;4884;42.614;23.340;2023-02-23T06:30:35;24.67;;;18.50;;
9689;SDS011;4884;42.614;23.340;2023-02-23T06:33:00;24.83;;;19.23;;
9689;SDS011;4884;42.614;23.340;2023-02-23T06:35:26;27.53;;;18.27;;
9689;SDS011;4884;42.614;23.340;2023-02-23T06:37:51;24.83;;;18.97;;
9689;SDS011;4884;42.614;23.340;2023-02-23T06:40:18;26.63;;;21.10;;
9689;SDS011;4884;42.614;23.340;2023-02-23T06:42:43;24.20;;;20.23;;
9689;SDS011;4884;42.614;23.340;2023-02-23T06:45:09;25.33;;;20.13;;
9689;SDS011;4884;42.614;23.340;2023-02-23T06:47:35;26.33;;;19.27;;
9689;SDS011;4884;42.614;23.340;2023-02-23T06:50:00;24.03;;;17.43;;
9689;SDS011;4884;42.614;23.340;2023-02-23T06:52:27;28.77;;;18.80;;
9689;SDS011;4884;42.614;23.340;2023-02-23T06:54:52;23.77;;;17.43;;
9689;SDS011;4884;42.614;23.340;2023-02-23T06:57:17;20.60;;;15.67;;
9689;SDS011;4884;42.614;23.340;2023-02-23T06:59:43;25.97;;;16.10;;
9689;SDS011;4884;42.614;23.340;2023-02-23T07:02:12;29.97;;;20.00;;
9689;SDS011;4884;42.614;23.340;2023-02-23T07:04:38;24.37;;;18.07;;
9689;SDS011;4884;42.614;23.340;2023-02-23T07:07:03;22.60;;;17.40;;
9689;SDS011;4884;42.614;23.340;2023-02-23T07:09:29;22.87;;;16.90;;
9689;SDS011;4884;42.614;23.340;2023-02-23T07:11:54;25.43;;;18.10;;
9689;SDS011;4884;42.614;23.340;2023-02-23T07:14:20;32.53;;;18.37;;
9689;SDS011;4884;42.614;23.340;2023-02-23T07:16:45;32.40;;;19.83;;
9689;SDS011;4884;42.614;23.340;2023-02-23T07:19:11;32.37;;;19.83;;
9689;SDS011;4884;42.614;23.340;2023-02-23T07:21:36;29.37;;;17.80;;
9689;SDS011;4884;42.614;23.340;2023-02-23T07:24:02;25.97;;;18.37;;
9689;SDS011;4884;42.614;23.340;2023-02-23T07:26:29;26.40;;;17.07;;
9689;SDS011;4884;42.614;23.340;2023-02-23T07:28:54;23.03;;;16.90;;
9689;SDS011;4884;42.614;23.340;2023-02-23T07:31:20;27.97;;;17.50;;
9689;SDS011;4884;42.614;23.340;2023-02-23T07:33:45;23.87;;;18.63;;
9689;SDS011;4884;42.614;23.340;2023-02-23T07:36:10;23.43;;;16.43;;
9689;SDS011;4884;42.614;23.340;2023-02-23T07:38:36;17.27;;;13.93;;
9689;SDS011;4884;42.614;23.340;2023-02-23T07:41:02;18.60;;;12.93;;
9689;SDS011;4884;42.614;23.340;2023-02-23T07:43:28;18.80;;;11.67;;
9689;SDS011;4884;42.614;23.340;2023-02-23T07:45:53;14.97;;;11.83;;
9689;SDS011;4884;42.614;23.340;2023-02-23T07:48:19;14.77;;;10.87;;
9689;SDS011;4884;42.614;23.340;2023-02-23T07:50:45;16.63;;;12.10;;
9689;SDS011;4884;42.614;23.340;2023-02-23T07:53:10;14.73;;;11.50;;
9689;SDS011;4884;42.614;23.340;2023-02-23T07:55:36;19.57;;;14.97;;
9689;SDS011;4884;42.614;23.340;2023-02-23T07:58:05;19.37;;;14.57;;
9689;SDS011;4884;42.614;23.340;2023-02-23T08:00:31;19.50;;;13.40;;
9689;SDS011;4884;42.614;23.340;2023-02-23T08:02:57;20.40;;;14.57;;
9689;SDS011;4884;42.614;23.340;2023-02-23T08:05:23;17.53;;;12.87;;
9689;SDS011;4884;42.614;23.340;2023-02-23T08:07:49;16.23;;;12.97;;
9689;SDS011;4884;42.614;23.340;2023-02-23T08:10:15;19.80;;;13.37;;
9689;SDS011;4884;42.614;23.340;2023-02-23T08:12:41;17.80;;;13.53;;
9689;SDS011;4884;42.614;23.340;2023-02-23T08:15:06;19.27;;;11.93;;
9689;SDS011;4884;42.614;23.340;2023-02-23T08:17:36;14.47;;;11.80;;
9689;SDS011;4884;42.614;23.340;2023-02-23T08:20:02;19.37;;;13.00;;
9689;SDS011;4884;42.614;23.340;2023-02-23T08:22:28;16.53;;;12.37;;
9689;SDS011;4884;42.614;23.340;2023-02-23T08:24:54;18.57;;;12.03;;
9689;SDS011;4884;42.614;23.340;2023-02-23T08:27:19;13.50;;;9.53;;
9689;SDS011;4884;42.614;23.340;2023-02-23T08:29:45;17.57;;;10.80;;
9689;SDS011;4884;42.614;23.340;2023-02-23T08:32:10;11.83;;;10.20;;
9689;SDS011;4884;42.614;23.340;2023-02-23T08:34:36;14.87;;;9.97;;
9689;SDS011;4884;42.614;23.340;2023-02-23T08:37:03;15.82;;;9.70;;
9689;SDS011;4884;42.614;23.340;2023-02-23T08:39:28;14.82;;;10.18;;
9689;SDS011;4884;42.614;23.340;2023-02-23T08:41:54;10.10;;;8.77;;
9689;SDS011;4884;42.614;23.340;2023-02-23T08:44:19;11.27;;;8.93;;
9689;SDS011;4884;42.614;23.340;2023-02-23T08:46:45;12.87;;;8.93;;
9689;SDS011;4884;42.614;23.340;2023-02-23T08:49:10;13.93;;;9.50;;
9689;SDS011;4884;42.614;23.340;2023-02-23T08:51:35;18.20;;;9.23;;
9689;SDS011;4884;42.614;23.340;2023-02-23T08:54:01;14.73;;;10.50;;
9689;SDS011;4884;42.614;23.340;2023-02-23T08:56:26;12.60;;;10.20;;
9689;SDS011;4884;42.614;23.340;2023-02-23T08:58:52;11.10;;;9.40;;
9689;SDS011;4884;42.614;23.340;2023-02-23T09:01:18;12.83;;;9.43;;
9689;SDS011;4884;42.614;23.340;2023-02-23T09:03:45;16.80;;;9.83;;
9689;SDS011;4884;42.614;23.340;2023-02-23T09:06:13;12.97;;;10.00;;
9689;SDS011;4884;42.614;23.340;2023-02-23T09:08:40;15.13;;;11.97;;
9689;SDS011;4884;42.614;23.340;2023-02-23T09:11:06;14.47;;;10.57;;
9689;SDS011;4884;42.614;23.340;2023-02-23T09:13:31;13.87;;;9.87;;
9689;SDS011;4884;42.614;23.340;2023-02-23T09:15:57;15.10;;;10.03;;
9689;SDS011;4884;42.614;23.340;2023-02-23T09:18:22;12.73;;;10.73;;
9689;SDS011;4884;42.614;23.340;2023-02-23T09:20:53;12.40;;;11.10;;
9689;SDS011;4884;42.614;23.340;2023-02-23T09:23:19;13.73;;;10.33;;
9689;SDS011;4884;42.614;23.340;2023-02-23T09:25:44;16.50;;;11.20;;
9689;SDS011;4884;42.614;23.340;2023-02-23T09:28:11;24.10;;;12.00;;
9689;SDS011;4884;42.614;23.340;2023-02-23T09:30:38;48.90;;;26.53;;
9689;SDS011;4884;42.614;23.340;2023-02-23T09:33:05;28.00;;;14.87;;
9689;SDS011;4884;42.614;23.340;2023-02-23T09:35:31;19.93;;;12.30;;
9689;SDS011;4884;42.614;23.340;2023-02-23T09:37:57;16.20;;;10.77;;
9689;SDS011;4884;42.614;23.340;2023-02-23T09:40:23;15.83;;;11.87;;
9689;SDS011;4884;42.614;23.340;2023-02-23T09:45:40;11.93;;;10.47;;
9689;SDS011;4884;42.614;23.340;2023-02-23T09:48:14;14.20;;;12.30;;
9689;SDS011;4884;42.614;23.340;2023-02-23T09:50:44;12.63;;;11.03;;
9689;SDS011;4884;42.614;23.340;2023-02-23T09:55:57;15.13;;;11.37;;
9689;SDS011;4884;42.614;23.340;2023-02-23T09:58:27;16.50;;;11.70;;
9689;SDS011;4884;42.614;23.340;2023-02-23T10:03:58;17.97;;;13.63;;
9689;SDS011;4884;42.614;23.340;2023-02-23T10:06:29;18.80;;;13.30;;
9689;SDS011;4884;42.614;23.340;2023-02-23T10:17:20;14.83;;;13.20;;
9689;SDS011;4884;42.614;23.340;2023-02-23T10:22:42;15.73;;;12.00;;
9689;SDS011;4884;42.614;23.340;2023-02-23T10:25:16;24.07;;;12.87;;
9689;SDS011;4884;42.614;23.340;2023-02-23T10:27:46;15.60;;;11.77;;
9689;SDS011;4884;42.614;23.340;2023-02-23T10:30:21;15.95;;;11.95;;
9689;SDS011;4884;42.614;23.340;2023-02-23T10:35:27;15.77;;;14.20;;
9689;SDS011;4884;42.614;23.340;2023-02-23T10:37:55;15.30;;;13.40;;
9689;SDS011;4884;42.614;23.340;2023-02-23T10:40:22;13.43;;;11.63;;
9689;SDS011;4884;42.614;23.340;2023-02-23T10:42:50;14.13;;;12.63;;
9689;SDS011;4884;42.614;23.340;2023-02-23T10:45:17;13.70;;;12.27;;
9689;SDS011;4884;42.614;23.340;2023-02-23T10:47:48;14.40;;;12.30;;
9689;SDS011;4884;42.614;23.340;2023-02-23T10:50:15;15.00;;;10.83;;
9689;SDS011;4884;42.614;23.340;2023-02-23T10:52:41;12.57;;;11.27;;
9689;SDS011;4884;42.614;23.340;2023-02-23T11:00:41;12.97;;;10.97;;
9689;SDS011;4884;42.614;23.340;2023-02-23T11:03:21;18.33;;;10.13;;
9689;SDS011;4884;42.614;23.340;2023-02-23T11:05:50;16.63;;;10.73;;
9689;SDS011;4884;42.614;23.340;2023-02-23T11:08:21;13.60;;;10.00;;
9689;SDS011;4884;42.614;23.340;2023-02-23T11:11:00;13.27;;;10.83;;
9689;SDS011;4884;42.614;23.340;2023-02-23T11:13:27;14.67;;;10.57;;
9689;SDS011;4884;42.614;23.340;2023-02-23T11:16:01;8.80;;;7.27;;
9689;SDS011;4884;42.614;23.340;2023-02-23T11:18:29;10.07;;;7.57;;
9689;SDS011;4884;42.614;23.340;2023-02-23T11:20:55;11.00;;;7.83;;
9689;SDS011;4884;42.614;23.340;2023-02-23T11:23:22;11.07;;;8.10;;
9689;SDS011;4884;42.614;23.340;2023-02-23T11:25:53;13.47;;;9.67;;
9689;SDS011;4884;42.614;23.340;2023-02-23T11:28:40;9.67;;;7.63;;
9689;SDS011;4884;42.614;23.340;2023-02-23T11:31:19;15.37;;;10.20;;
9689;SDS011;4884;42.614;23.340;2023-02-23T11:33:46;13.07;;;8.47;;
9689;SDS011;4884;42.614;23.340;2023-02-23T11:36:34;8.70;;;7.77;;
9689;SDS011;4884;42.614;23.340;2023-02-23T11:39:32;14.13;;;8.07;;
9689;SDS011;4884;42.614;23.340;2023-02-23T11:42:05;10.93;;;7.27;;
9689;SDS011;4884;42.614;23.340;2023-02-23T11:44:38;10.43;;;7.93;;
9689;SDS011;4884;42.614;23.340;2023-02-23T11:47:04;11.77;;;8.53;;
9689;SDS011;4884;42.614;23.340;2023-02-23T11:49:30;9.93;;;8.10;;
9689;SDS011;4884;42.614;23.340;2023-02-23T11:51:58;12.83;;;7.07;;
9689;SDS011;4884;42.614;23.340;2023-02-23T11:56:57;13.20;;;7.88;;
9689;SDS011;4884;42.614;23.340;2023-02-23T11:59:33;9.95;;;8.18;;
9689;SDS011;4884;42.614;23.340;2023-02-23T12:02:03;11.45;;;7.88;;
9689;SDS011;4884;42.614;23.340;2023-02-23T12:04:36;9.53;;;7.47;;
9689;SDS011;4884;42.614;23.340;2023-02-23T12:07:20;13.67;;;7.80;;
9689;SDS011;4884;42.614;23.340;2023-02-23T12:09:53;17.20;;;7.78;;
9689;SDS011;4884;42.614;23.340;2023-02-23T12:12:24;9.90;;;7.85;;
9689;SDS011;4884;42.614;23.340;2023-02-23T12:14:52;12.80;;;8.65;;
9689;SDS011;4884;42.614;23.340;2023-02-23T12:17:24;14.25;;;8.57;;
9689;SDS011;4884;42.614;23.340;2023-02-23T12:22:32;11.17;;;8.30;;
9689;SDS011;4884;42.614;23.340;2023-02-23T12:25:04;7.97;;;6.40;;
9689;SDS011;4884;42.614;23.340;2023-02-23T12:27:40;10.77;;;7.30;;
9689;SDS011;4884;42.614;23.340;2023-02-23T12:31:12;10.93;;;6.97;;
9689;SDS011;4884;42.614;23.340;2023-02-23T12:41:17;8.67;;;7.77;;
9689;SDS011;4884;42.614;23.340;2023-02-23T12:43:56;11.07;;;7.80;;
9689;SDS011;4884;42.614;23.340;2023-02-23T12:46:34;10.73;;;8.80;;
9689;SDS011;4884;42.614;23.340;2023-02-23T12:51:39;9.83;;;7.80;;
9689;SDS011;4884;42.614;23.340;2023-02-23T12:54:11;10.20;;;8.30;;
9689;SDS011;4884;42.614;23.340;2023-02-23T12:56:43;9.90;;;7.73;;
9689;SDS011;4884;42.614;23.340;2023-02-23T13:01:55;11.97;;;7.63;;
9689;SDS011;4884;42.614;23.340;2023-02-23T13:15:01;11.07;;;7.07;;
9689;SDS011;4884;42.614;23.340;2023-02-23T13:20:10;11.13;;;7.80;;
9689;SDS011;4884;42.614;23.340;2023-02-23T13:27:58;8.83;;;7.27;;
9689;SDS011;4884;42.614;23.340;2023-02-23T13:30:25;9.63;;;7.33;;
9689;SDS011;4884;42.614;23.340;2023-02-23T13:32:50;9.03;;;6.77;;
9689;SDS011;4884;42.614;23.340;2023-02-23T13:35:17;10.67;;;7.13;;
9689;SDS011;4884;42.614;23.340;2023-02-23T13:37:50;8.47;;;7.07;;
9689;SDS011;4884;42.614;23.340;2023-02-23T13:40:23;12.93;;;7.83;;
9689;SDS011;4884;42.614;23.340;2023-02-23T13:51:29;11.00;;;7.50;;
9689;SDS011;4884;42.614;23.340;2023-02-23T13:54:00;9.53;;;7.67;;
9689;SDS011;4884;42.614;23.340;2023-02-23T13:56:32;14.10;;;6.93;;
9689;SDS011;4884;42.614;23.340;2023-02-23T13:59:29;9.40;;;7.60;;
9689;SDS011;4884;42.614;23.340;2023-02-23T14:01:59;12.37;;;7.13;;
9689;SDS011;4884;42.614;23.340;2023-02-23T14:04:28;12.23;;;6.57;;
9689;SDS011;4884;42.614;23.340;2023-02-23T14:07:03;9.53;;;7.40;;
9689;SDS011;4884;42.614;23.340;2023-02-23T14:10:13;10.30;;;7.60;;
9689;SDS011;4884;42.614;23.340;2023-02-23T14:12:33;7.67;;;6.77;;
9689;SDS011;4884;42.614;23.340;2023-02-23T14:18:02;9.13;;;6.80;;
9689;SDS011;4884;42.614;23.340;2023-02-23T14:23:12;8.60;;;6.33;;
9689;SDS011;4884;42.614;23.340;2023-02-23T14:25:52;11.93;;;7.20;;
9689;SDS011;4884;42.614;23.340;2023-02-23T14:28:37;8.20;;;7.03;;
9689;SDS011;4884;42.614;23.340;2023-02-23T14:41:38;14.50;;;10.63;;
9689;SDS011;4884;42.614;23.340;2023-02-23T14:46:53;8.87;;;7.17;;
9689;SDS011;4884;42.614;23.340;2023-02-23T14:49:21;8.70;;;6.27;;
9689;SDS011;4884;42.614;23.340;2023-02-23T14:54:23;15.93;;;9.63;;
9689;SDS011;4884;42.614;23.340;2023-02-23T14:57:04;15.97;;;9.47;;
9689;SDS011;4884;42.614;23.340;2023-02-23T14:59:37;7.80;;;5.87;;
9689;SDS011;4884;42.614;23.340;2023-02-23T15:02:11;9.67;;;6.20;;
9689;SDS011;4884;42.614;23.340;2023-02-23T15:04:41;6.40;;;5.77;;
9689;SDS011;4884;42.614;23.340;2023-02-23T15:07:08;9.60;;;5.97;;
9689;SDS011;4884;42.614;23.340;2023-02-23T15:09:42;9.77;;;6.83;;
9689;SDS011;4884;42.614;23.340;2023-02-23T15:12:18;7.77;;;6.60;;
9689;SDS011;4884;42.614;23.340;2023-02-23T15:14:47;12.23;;;7.10;;
9689;SDS011;4884;42.614;23.340;2023-02-23T15:17:24;8.97;;;7.23;;
9689;SDS011;4884;42.614;23.340;2023-02-23T15:19:55;54.57;;;30.07;;
9689;SDS011;4884;42.614;23.340;2023-02-23T15:22:24;8.00;;;7.20;;
9689;SDS011;4884;42.614;23.340;2023-02-23T15:25:01;9.47;;;7.43;;
9689;SDS011;4884;42.614;23.340;2023-02-23T15:27:41;9.70;;;8.17;;
9689;SDS011;4884;42.614;23.340;2023-02-23T15:35:28;8.63;;;7.83;;
9689;SDS011;4884;42.614;23.340;2023-02-23T15:37:56;9.17;;;7.43;;
9689;SDS011;4884;42.614;23.340;2023-02-23T15:40:23;10.20;;;7.47;;
9689;SDS011;4884;42.614;23.340;2023-02-23T15:42:50;7.37;;;6.67;;
9689;SDS011;4884;42.614;23.340;2023-02-23T15:48:01;21.60;;;13.67;;
9689;SDS011;4884;42.614;23.340;2023-02-23T15:50:39;9.23;;;8.33;;
9689;SDS011;4884;42.614;23.340;2023-02-23T15:53:07;12.50;;;9.40;;
9689;SDS011;4884;42.614;23.340;2023-02-23T15:55:43;10.90;;;8.50;;
9689;SDS011;4884;42.614;23.340;2023-02-23T15:58:11;12.37;;;9.23;;
9689;SDS011;4884;42.614;23.340;2023-02-23T16:00:42;11.20;;;8.13;;
9689;SDS011;4884;42.614;23.340;2023-02-23T16:03:28;13.83;;;10.77;;
9689;SDS011;4884;42.614;23.340;2023-02-23T16:05:59;12.63;;;9.67;;
9689;SDS011;4884;42.614;23.340;2023-02-23T16:08:28;10.77;;;9.33;;
9689;SDS011;4884;42.614;23.340;2023-02-23T16:11:15;10.57;;;8.83;;
9689;SDS011;4884;42.614;23.340;2023-02-23T16:13:43;12.93;;;9.93;;
9689;SDS011;4884;42.614;23.340;2023-02-23T16:16:09;19.87;;;17.70;;
9689;SDS011;4884;42.614;23.340;2023-02-23T16:18:42;23.57;;;20.87;;
9689;SDS011;4884;42.614;23.340;2023-02-23T16:21:14;21.10;;;15.93;;
9689;SDS011;4884;42.614;23.340;2023-02-23T16:23:43;41.07;;;25.63;;
9689;SDS011;4884;42.614;23.340;2023-02-23T16:26:10;23.37;;;16.37;;
9689;SDS011;4884;42.614;23.340;2023-02-23T16:28:42;31.03;;;18.30;;
9689;SDS011;4884;42.614;23.340;2023-02-23T16:31:08;28.33;;;17.47;;
9689;SDS011;4884;42.614;23.340;2023-02-23T16:33:44;25.93;;;17.83;;
9689;SDS011;4884;42.614;23.340;2023-02-23T16:36:22;22.97;;;15.50;;
9689;SDS011;4884;42.614;23.340;2023-02-23T16:41:31;22.30;;;15.50;;
9689;SDS011;4884;42.614;23.340;2023-02-23T16:43:59;17.43;;;13.17;;
9689;SDS011;4884;42.614;23.340;2023-02-23T16:46:27;16.80;;;12.37;;
9689;SDS011;4884;42.614;23.340;2023-02-23T16:48:56;15.57;;;10.87;;
9689;SDS011;4884;42.614;23.340;2023-02-23T16:51:29;18.10;;;12.07;;
9689;SDS011;4884;42.614;23.340;2023-02-23T16:53:55;14.50;;;11.43;;
9689;SDS011;4884;42.614;23.340;2023-02-23T16:56:20;10.80;;;8.87;;
9689;SDS011;4884;42.614;23.340;2023-02-23T16:58:47;11.37;;;8.73;;
9689;SDS011;4884;42.614;23.340;2023-02-23T17:01:14;8.47;;;7.63;;
9689;SDS011;4884;42.614;23.340;2023-02-23T17:03:41;12.60;;;9.53;;
9689;SDS011;4884;42.614;23.340;2023-02-23T17:06:08;13.57;;;8.70;;
9689;SDS011;4884;42.614;23.340;2023-02-23T17:08:34;9.20;;;7.40;;
9689;SDS011;4884;42.614;23.340;2023-02-23T17:11:00;10.37;;;7.47;;
9689;SDS011;4884;42.614;23.340;2023-02-23T17:13:26;11.03;;;9.13;;
9689;SDS011;4884;42.614;23.340;2023-02-23T17:16:02;11.20;;;7.97;;
9689;SDS011;4884;42.614;23.340;2023-02-23T17:18:32;13.37;;;8.17;;
9689;SDS011;4884;42.614;23.340;2023-02-23T17:21:00;8.97;;;7.73;;
9689;SDS011;4884;42.614;23.340;2023-02-23T17:23:28;12.30;;;9.37;;
9689;SDS011;4884;42.614;23.340;2023-02-23T17:26:02;22.80;;;15.43;;